CheckWX is a tool to help pilots better visualize weather data.  It is not intended as a substitute for an official pre-flight weather briefing.

15:31:19 UTC

KVGT METAR
North Las Vegas Airport
Las Vegas, Nevada, USA
Current

38 mins ago

KVGT 171453Z 00000KT 10SM CLR 18/00 A2973 RMK AO2 SLP067 T01830000 56008
Observed
Oct-17 @ 14:53 UTC
Visibility
10 SM
Flight Rules
VFR
Cloud Levels
  • Clear skies
Temperature
18°C / 64°F
Dewpoint
C / 32°F
Humidity
30%
Altimeter
29.73" Hg
Pressure
1006.82 hPa
Previous

2 hours ago

KVGT 171353Z 31005KT 10SM CLR 17/00 A2974 RMK AO2 SLP069 T01670000
Observed
Oct-17 @ 13:53 UTC
Wind
  • 310° at 5 KTS
Visibility
10 SM
Flight Rules
VFR
Cloud Levels
  • Clear skies
Temperature
17°C / 63°F
Dewpoint
C / 32°F
Humidity
32%
Altimeter
29.74" Hg
Pressure
1007.12 hPa
Previous

3 hours ago

KVGT 171253Z AUTO 00000KT 10SM CLR 16/01 A2974 RMK AO2 SLP072 T01610006
Observed
Oct-17 @ 12:53 UTC
Visibility
10 SM
Flight Rules
VFR
Cloud Levels
  • Clear skies
Temperature
16°C / 61°F
Dewpoint
C / 34°F
Humidity
36%
Altimeter
29.74" Hg
Pressure
1007.12 hPa